Time;durP1;ratioP1;P1;durP2;ratioP2;P2;SDS_P1;SDS_P2;PMS_P1;PMS_P2;Temp;Humidity;BMP_temperature;BMP_pressure;BME280_temperature;BME280_humidity;BME280_pressure;Samples;Min_cycle;Max_cycle;Signal;HPM_P1;HPM_P2
2023/04/02 00:02:18;;;;;;;;;;;4.30;99.90;;;;;;5062917;28;20072;-74
2023/04/02 00:04:44;;;;;;;14.82;11.45;;;4.30;99.90;;;;;;5066892;28;20035;-74
2023/04/02 00:07:29;;;;;;;20.60;12.65;;;4.30;99.90;;;;;;5042208;28;20045;-74
2023/04/02 00:09:56;;;;;;;19.00;12.60;;;4.30;99.90;;;;;;5059987;28;20128;-74
2023/04/02 00:12:22;;;;;;;13.15;10.95;;;4.30;99.90;;;;;;5068550;28;20048;-74
2023/04/02 00:14:53;;;;;;;14.13;11.18;;;4.30;99.90;;;;;;5066391;28;20036;-74
2023/04/02 00:17:22;;;;;;;19.70;11.90;;;4.20;99.90;;;;;;5066414;28;20049;-74
2023/04/02 00:19:48;;;;;;;;;;;4.20;99.90;;;;;;5065570;28;20036;-74
2023/04/02 00:22:34;;;;;;;13.38;10.48;;;4.20;99.90;;;;;;5065627;28;19920;-74
2023/04/02 00:25:06;;;;;;;13.60;11.18;;;4.10;99.90;;;;;;5064000;28;20052;-74
2023/04/02 00:27:32;;;;;;;14.45;10.55;;;4.10;99.90;;;;;;5061583;28;20106;-73
2023/04/02 00:29:58;;;;;;;15.35;11.38;;;4.10;99.90;;;;;;5065776;28;20033;-74
2023/04/02 00:32:31;;;;;;;13.50;11.70;;;4.10;99.90;;;;;;5064634;28;20056;-74
2023/04/02 00:34:58;;;;;;;13.10;10.95;;;4.10;99.90;;;;;;5061315;28;20154;-74
2023/04/02 00:37:27;;;;;;;12.15;9.90;;;4.00;99.90;;;;;;5050196;28;20044;-74
2023/04/02 00:40:06;;;;;;;16.95;10.45;;;4.00;99.90;;;;;;5065517;28;20764;-74
2023/04/02 00:42:34;;;;;;;15.98;10.73;;;3.90;99.90;;;;;;5059487;28;20045;-74
2023/04/02 00:45:01;;;;;;;15.93;10.57;;;3.90;99.90;;;;;;5065376;28;20094;-74
2023/04/02 00:47:34;;;;;;;14.32;9.57;;;3.90;99.90;;;;;;5069970;28;20044;-74
2023/04/02 00:50:15;;;;;;;16.20;10.23;;;3.90;99.90;;;;;;5062102;28;20037;-74
2023/04/02 00:52:46;;;;;;;14.48;10.43;;;3.80;99.90;;;;;;5064094;28;20037;-74
2023/04/02 00:55:35;;;;;;;13.02;9.90;;;3.80;99.90;;;;;;5065551;28;20051;-74
2023/04/02 00:58:01;;;;;;;;;;;3.70;99.90;;;;;;5065579;28;20052;-74
2023/04/02 01:00:29;;;;;;;13.57;10.07;;;3.60;99.90;;;;;;5066917;28;19978;-74
2023/04/02 01:03:16;;;;;;;15.50;9.85;;;3.60;99.90;;;;;;5070166;28;20045;-74
2023/04/02 01:05:44;;;;;;;11.40;9.70;;;3.50;99.90;;;;;;5071445;28;20087;-74
2023/04/02 01:08:42;;;;;;;15.75;10.13;;;3.30;99.90;;;;;;5067348;28;20045;-74
2023/04/02 01:11:20;;;;;;;17.83;9.45;;;3.20;99.90;;;;;;5060406;28;20052;-74
2023/04/02 01:13:51;;;;;;;12.05;9.82;;;3.10;99.90;;;;;;5063378;28;20040;-74
2023/04/02 01:16:23;;;;;;;11.80;9.23;;;3.00;99.90;;;;;;5066708;28;20048;-74
2023/04/02 01:19:12;;;;;;;13.80;10.13;;;2.90;99.90;;;;;;5053179;28;20045;-74
2023/04/02 01:21:56;;;;;;;12.52;8.77;;;2.80;99.90;;;;;;5068714;28;20052;-74
2023/04/02 01:24:28;;;;;;;14.07;8.98;;;2.80;99.90;;;;;;5064546;28;20048;-73
2023/04/02 01:26:57;;;;;;;13.43;9.93;;;2.70;99.90;;;;;;5065108;28;20052;-73
2023/04/02 01:29:38;;;;;;;16.17;9.52;;;2.70;99.90;;;;;;5058035;28;20113;-74
2023/04/02 01:32:10;;;;;;;14.30;9.02;;;2.70;99.90;;;;;;5049331;28;20048;-73
2023/04/02 01:34:37;;;;;;;11.48;8.52;;;2.60;99.90;;;;;;5069610;28;20416;-74
2023/04/02 01:37:03;;;;;;;14.23;9.77;;;2.60;99.90;;;;;;5069412;28;20455;-74
2023/04/02 01:39:58;;;;;;;13.02;7.95;;;2.50;99.90;;;;;;5069279;28;20045;-74
2023/04/02 01:42:35;;;;;;;13.95;9.48;;;2.50;99.90;;;;;;5070448;28;20106;-74
2023/04/02 01:45:02;;;;;;;15.63;9.80;;;2.40;99.90;;;;;;5058310;28;20114;-74
2023/04/02 01:47:28;;;;;;;13.33;8.40;;;2.40;99.90;;;;;;5067260;28;20400;-74
2023/04/02 01:50:01;;;;;;;16.13;9.15;;;2.30;99.90;;;;;;5062418;28;20050;-74
2023/04/02 01:52:40;;;;;;;25.00;9.38;;;2.30;99.90;;;;;;5063574;28;20128;-74
2023/04/02 01:55:07;;;;;;;15.82;8.40;;;2.30;99.90;;;;;;5064704;28;20051;-74
2023/04/02 01:57:33;;;;;;;15.63;8.27;;;2.20;99.90;;;;;;5064206;28;20076;-74
2023/04/02 02:00:01;;;;;;;16.38;7.93;;;2.20;99.90;;;;;;5067375;28;20078;-73
2023/04/02 02:02:26;;;;;;;11.65;8.23;;;2.10;99.90;;;;;;5070435;28;20057;-73
2023/04/02 02:04:53;;;;;;;15.52;8.63;;;2.10;99.90;;;;;;5068136;28;20048;-73
2023/04/02 02:07:20;;;;;;;15.13;9.20;;;2.10;99.90;;;;;;5067722;28;20036;-73
2023/04/02 02:09:47;;;;;;;13.07;8.32;;;2.10;99.90;;;;;;5062163;28;20047;-74
2023/04/02 02:12:15;;;;;;;14.30;8.15;;;2.00;99.90;;;;;;5069842;28;20474;-73
2023/04/02 02:14:48;;;;;;;12.88;8.55;;;2.00;99.90;;;;;;5062316;28;20096;-73
2023/04/02 02:17:25;;;;;;;11.80;8.80;;;2.00;99.90;;;;;;5065909;28;20494;-73
2023/04/02 02:19:55;;;;;;;19.30;9.82;;;1.90;99.90;;;;;;5068610;28;20131;-73
2023/04/02 02:22:32;;;;;;;12.48;7.65;;;1.90;99.90;;;;;;5067375;28;20128;-74
2023/04/02 02:25:04;;;;;;;10.30;7.10;;;1.80;99.90;;;;;;5070298;28;20486;-73
2023/04/02 02:27:56;;;;;;;17.23;8.60;;;1.80;99.90;;;;;;5063871;28;20045;-74
2023/04/02 02:30:34;;;;;;;12.57;7.82;;;1.80;99.90;;;;;;5067110;28;20040;-74
2023/04/02 02:33:29;;;;;;;14.15;9.43;;;1.80;99.90;;;;;;5064999;28;20037;-74
2023/04/02 02:36:09;;;;;;;15.70;8.68;;;1.70;99.90;;;;;;5068871;28;20529;-74
2023/04/02 02:38:46;;;;;;;14.88;8.30;;;1.70;99.90;;;;;;5068245;28;20040;-74
2023/04/02 02:41:23;;;;;;;17.25;8.10;;;1.60;99.90;;;;;;5055068;28;20049;-74
2023/04/02 02:44:04;;;;;;;14.60;8.82;;;1.60;99.90;;;;;;5057928;28;20043;-74
2023/04/02 02:46:32;;;;;;;17.52;9.57;;;1.60;99.90;;;;;;5049909;28;20087;-74
2023/04/02 02:49:00;;;;;;;15.52;7.55;;;1.60;99.90;;;;;;5059815;28;20076;-74
2023/04/02 02:51:41;;;;;;;14.05;8.15;;;1.50;99.90;;;;;;5062693;28;20471;-74
2023/04/02 02:54:06;;;;;;;11.60;7.95;;;1.60;99.90;;;;;;5061650;28;20135;-74
2023/04/02 02:56:40;;;;;;;13.40;7.65;;;1.60;99.90;;;;;;5063787;28;20509;-74
2023/04/02 02:59:08;;;;;;;11.05;7.68;;;1.60;99.90;;;;;;5068220;28;20049;-74
2023/04/02 03:01:34;;;;;;;11.25;6.65;;;1.70;99.90;;;;;;5067867;28;20045;-74
2023/04/02 03:04:01;;;;;;;13.77;7.90;;;1.70;99.90;;;;;;5063240;28;20060;-74
2023/04/02 03:06:29;;;;;;;13.35;6.60;;;1.70;99.90;;;;;;5063327;28;20051;-74
2023/04/02 03:08:57;;;;;;;11.68;6.47;;;1.70;99.90;;;;;;5064379;28;20564;-74
2023/04/02 03:11:33;;;;;;;11.85;6.85;;;1.70;99.90;;;;;;5065771;28;20048;-74
2023/04/02 03:14:17;;;;;;;10.15;6.38;;;1.80;99.90;;;;;;5067402;28;20060;-74
2023/04/02 03:16:50;;;;;;;10.18;5.95;;;1.80;99.90;;;;;;5061468;28;20053;-74
2023/04/02 03:19:52;;;;;;;10.85;7.00;;;1.80;99.90;;;;;;5060325;28;20052;-74
2023/04/02 03:22:26;;;;;;;13.60;6.68;;;1.80;99.90;;;;;;5060077;28;20084;-74
2023/04/02 03:25:14;;;;;;;10.70;6.30;;;1.80;99.90;;;;;;5061866;28;20053;-74
2023/04/02 03:27:45;;;;;;;9.63;5.65;;;1.80;99.90;;;;;;5063875;28;20052;-75
2023/04/02 03:30:26;;;;;;;7.80;6.05;;;1.80;99.90;;;;;;5066396;28;20127;-74
2023/04/02 03:32:58;;;;;;;12.48;8.15;;;1.80;99.90;;;;;;5063618;28;20564;-74
2023/04/02 03:35:32;;;;;;;13.43;6.90;;;1.80;99.90;;;;;;5049811;28;20395;-74
2023/04/02 03:38:03;;;;;;;7.20;5.53;;;1.80;99.90;;;;;;5044148;28;20410;-74
2023/04/02 03:40:37;;;;;;;13.63;6.30;;;1.80;99.90;;;;;;5060465;28;20056;-75
2023/04/02 03:43:11;;;;;;;9.40;6.10;;;1.80;99.90;;;;;;5058351;28;20935;-74
2023/04/02 03:45:44;;;;;;;12.60;6.97;;;1.80;99.90;;;;;;5065890;28;20056;-74
2023/04/02 03:48:26;;;;;;;11.77;6.90;;;1.90;99.90;;;;;;5067214;28;20139;-74
2023/04/02 03:51:06;;;;;;;16.23;6.70;;;1.80;99.90;;;;;;5054357;28;20041;-74
2023/04/02 03:53:32;;;;;;;10.10;5.93;;;1.80;99.90;;;;;;5049118;28;20079;-74
2023/04/02 03:55:59;;;;;;;13.27;6.53;;;1.80;99.90;;;;;;5067267;28;20079;-74
2023/04/02 03:58:35;;;;;;;13.63;6.45;;;1.80;99.90;;;;;;5057402;28;20072;-74
2023/04/02 04:01:35;;;;;;;10.82;6.57;;;1.80;99.90;;;;;;5056644;28;20088;-74
2023/04/02 04:04:11;;;;;;;9.20;5.72;;;1.80;99.90;;;;;;5051638;28;20056;-74
2023/04/02 04:06:41;;;;;;;12.98;5.88;;;1.80;99.90;;;;;;5067911;28;20036;-74
2023/04/02 04:09:18;;;;;;;12.93;5.35;;;1.70;99.90;;;;;;5060195;28;20052;-74
2023/04/02 04:11:51;;;;;;;15.45;5.25;;;1.70;99.90;;;;;;5061273;28;20053;-75
2023/04/02 04:14:19;;;;;;;9.18;5.07;;;1.70;99.90;;;;;;5061081;28;20040;-74
2023/04/02 04:17:00;;;;;;;;;;;1.70;99.90;;;;;;5064652;28;20052;-74
2023/04/02 04:19:38;;;;;;;8.23;4.25;;;1.70;99.90;;;;;;5061708;28;19974;-74
2023/04/02 04:22:29;;;;;;;9.00;4.67;;;1.60;99.90;;;;;;5061542;28;20524;-74
2023/04/02 04:25:00;;;;;;;13.23;4.95;;;1.60;99.90;;;;;;5053659;28;20146;-74
2023/04/02 04:27:37;;;;;;;10.88;5.00;;;1.60;99.90;;;;;;5059146;28;20056;-74
2023/04/02 04:30:21;;;;;;;10.60;4.32;;;1.50;99.90;;;;;;5067767;28;20485;-74
2023/04/02 04:33:04;;;;;;;9.52;4.88;;;1.50;99.90;;;;;;5065280;28;20143;-74
2023/04/02 04:35:35;;;;;;;19.25;4.00;;;1.50;99.90;;;;;;5060614;28;20398;-74
2023/04/02 04:38:03;;;;;;;11.18;4.22;;;1.40;99.90;;;;;;5059986;28;20049;-74
2023/04/02 04:40:33;;;;;;;5.78;3.65;;;1.40;99.90;;;;;;5065506;28;20136;-74
2023/04/02 04:43:06;;;;;;;10.23;4.30;;;1.30;99.90;;;;;;5066827;28;20097;-74
2023/04/02 04:45:50;;;;;;;18.45;5.63;;;1.30;99.90;;;;;;5066180;28;20051;-74
2023/04/02 04:48:21;;;;;;;9.93;4.63;;;1.20;99.90;;;;;;5061291;28;20041;-74
2023/04/02 04:51:00;;;;;;;6.75;3.63;;;1.20;99.90;;;;;;5058561;28;20090;-75
2023/04/02 04:53:28;;;;;;;12.60;4.80;;;1.20;99.90;;;;;;5056608;28;20117;-75
2023/04/02 04:55:57;;;;;;;9.00;3.85;;;1.20;99.90;;;;;;5067238;28;20044;-75
2023/04/02 04:58:40;;;;;;;13.55;4.45;;;1.20;99.90;;;;;;5066501;28;20040;-75
2023/04/02 05:01:16;;;;;;;8.85;3.50;;;1.20;99.90;;;;;;5068032;28;20053;-75
2023/04/02 05:04:23;;;;;;;10.30;3.63;;;1.10;99.90;;;;;;5057242;28;20404;-74
2023/04/02 05:07:18;;;;;;;8.07;2.83;;;1.10;99.90;;;;;;5057245;28;20048;-75
2023/04/02 05:09:54;;;;;;;9.75;4.50;;;1.00;99.90;;;;;;5057690;28;20140;-75
2023/04/02 05:12:55;;;;;;;8.60;3.40;;;1.00;99.90;;;;;;5063852;28;20494;-74
2023/04/02 05:15:28;;;;;;;15.52;3.95;;;0.90;99.90;;;;;;5057420;28;20557;-74
2023/04/02 05:17:57;;;;;;;6.10;3.72;;;0.90;99.90;;;;;;5054856;28;20059;-74
2023/04/02 05:20:28;;;;;;;9.10;3.78;;;0.90;99.90;;;;;;5042885;28;20051;-74
2023/04/02 05:22:57;;;;;;;9.25;3.47;;;0.90;99.90;;;;;;5060126;28;20051;-74
2023/04/02 05:25:28;;;;;;;9.48;3.60;;;0.90;99.90;;;;;;5060728;28;20105;-74
2023/04/02 05:28:12;;;;;;;6.40;3.72;;;1.10;99.90;;;;;;5061168;28;20119;-74
2023/04/02 05:31:00;;;;;;;8.50;3.63;;;1.20;99.90;;;;;;5068286;28;20081;-74
2023/04/02 05:33:29;;;;;;;7.25;3.80;;;1.50;99.90;;;;;;5070499;28;20043;-74
2023/04/02 05:36:10;;;;;;;9.52;4.28;;;1.70;99.90;;;;;;5059774;28;20045;-75
2023/04/02 05:38:45;;;;;;;5.38;3.38;;;1.90;99.90;;;;;;5065701;28;20045;-74
2023/04/02 05:41:37;;;;;;;7.55;3.50;;;1.80;99.90;;;;;;5066432;28;20045;-74
2023/04/02 05:44:15;;;;;;;11.95;3.33;;;1.60;99.90;;;;;;5070455;28;20095;-74
2023/04/02 05:46:50;;;;;;;11.57;3.22;;;1.70;99.90;;;;;;5058094;28;20048;-75
2023/04/02 05:49:33;;;;;;;5.60;3.15;;;2.20;99.90;;;;;;5062154;28;20119;-74
2023/04/02 05:52:02;;;;;;;5.00;3.33;;;2.70;99.90;;;;;;5070287;28;20516;-74
2023/04/02 05:54:55;;;;;;;6.93;3.38;;;2.90;99.90;;;;;;5064829;28;20055;-75
2023/04/02 05:57:30;;;;;;;10.23;3.50;;;3.20;99.90;;;;;;5057671;28;21505;-75
2023/04/02 05:59:59;;;;;;;5.80;3.25;;;3.30;99.90;;;;;;5064226;28;20400;-74
2023/04/02 06:02:43;;;;;;;4.60;3.42;;;3.60;99.90;;;;;;5064303;28;20501;-74
2023/04/02 06:05:16;;;;;;;13.18;3.38;;;3.90;99.90;;;;;;5063043;28;20049;-75
2023/04/02 06:07:47;;;;;;;4.97;2.92;;;3.90;99.90;;;;;;5061651;28;20098;-74
2023/04/02 06:10:21;;;;;;;6.90;3.58;;;3.40;99.90;;;;;;5054703;28;20098;-75
2023/04/02 06:12:49;;;;;;;7.18;3.08;;;3.40;99.90;;;;;;5067961;28;20033;-74
2023/04/02 06:15:17;;;;;;;6.32;3.30;;;3.60;99.90;;;;;;5061690;28;20060;-74
2023/04/02 06:17:50;;;;;;;9.27;3.67;;;3.60;99.90;;;;;;5066172;28;20049;-74
2023/04/02 06:20:18;;;;;;;9.77;3.33;;;3.40;99.90;;;;;;5052128;28;20136;-75
2023/04/02 06:23:06;;;;;;;6.97;2.53;;;3.20;99.90;;;;;;5061118;28;20118;-75
2023/04/02 06:26:04;;;;;;;17.35;4.53;;;3.40;99.90;;;;;;5059199;28;20049;-75
2023/04/02 06:28:41;;;;;;;6.32;3.08;;;3.70;99.90;;;;;;5055023;28;20060;-75
2023/04/02 06:31:21;;;;;;;5.45;2.55;;;3.70;99.90;;;;;;5062481;28;20035;-74
2023/04/02 06:33:51;;;;;;;8.27;3.22;;;3.60;99.90;;;;;;5065380;28;20520;-74
2023/04/02 06:36:18;;;;;;;13.02;3.42;;;3.40;99.90;;;;;;5060677;28;20524;-75
2023/04/02 06:38:46;;;;;;;6.25;2.83;;;3.50;99.90;;;;;;5066629;28;20064;-75
2023/04/02 06:41:20;;;;;;;10.00;4.30;;;3.50;99.90;;;;;;5056118;28;20051;-75
2023/04/02 06:44:19;;;;;;;7.32;3.40;;;3.50;99.90;;;;;;5065709;28;20048;-75
2023/04/02 06:46:50;;;;;;;11.05;3.25;;;3.60;99.90;;;;;;5029479;28;20060;-74
2023/04/02 06:49:41;;;;;;;5.65;2.65;;;3.50;99.90;;;;;;5069275;28;20443;-74
2023/04/02 06:52:20;;;;;;;6.50;3.13;;;3.50;99.90;;;;;;5064976;28;20112;-74
2023/04/02 06:54:47;;;;;;;9.85;3.38;;;3.60;99.90;;;;;;5060913;28;20726;-75
2023/04/02 06:57:13;;;;;;;3.58;2.35;;;3.60;99.90;;;;;;5067031;28;20417;-75
2023/04/02 06:59:39;;;;;;;8.70;3.35;;;3.70;99.90;;;;;;5061897;28;20053;-74
2023/04/02 07:02:24;;;;;;;5.75;3.00;;;3.80;99.90;;;;;;5061737;28;20045;-75
2023/04/02 07:04:50;;;;;;;10.98;2.95;;;3.80;99.90;;;;;;5067059;28;20051;-74
2023/04/02 07:07:15;;;;;;;8.60;2.63;;;3.90;99.90;;;;;;5058403;28;20045;-75
2023/04/02 07:09:41;;;;;;;10.23;3.30;;;3.90;99.90;;;;;;5058976;28;20410;-74
2023/04/02 07:12:11;;;;;;;5.65;3.00;;;4.10;99.90;;;;;;5064222;28;20040;-75
2023/04/02 07:14:37;;;;;;;5.47;3.40;;;4.10;99.90;;;;;;5062805;28;20047;-75
2023/04/02 07:17:03;;;;;;;8.18;3.85;;;4.10;99.90;;;;;;5063431;28;20053;-74
2023/04/02 07:19:28;;;;;;;8.52;3.50;;;4.00;99.90;;;;;;5058943;28;20040;-74
2023/04/02 07:21:54;;;;;;;4.22;2.63;;;4.00;99.90;;;;;;5064603;28;20067;-74
2023/04/02 07:24:20;;;;;;;4.32;2.90;;;4.00;99.90;;;;;;5066017;28;20044;-74
2023/04/02 07:26:46;;;;;;;4.13;3.10;;;4.00;99.90;;;;;;5060464;28;20052;-74
2023/04/02 07:29:16;;;;;;;10.93;2.90;;;4.00;99.90;;;;;;5064809;28;20040;-74
2023/04/02 07:31:42;;;;;;;6.55;3.08;;;4.00;99.90;;;;;;5059354;28;20390;-74
2023/04/02 07:34:09;;;;;;;6.97;3.25;;;4.00;99.90;;;;;;5065090;28;20084;-74
2023/04/02 07:36:34;;;;;;;9.30;4.18;;;4.20;99.90;;;;;;5064756;28;20060;-74
2023/04/02 07:39:01;;;;;;;11.38;3.88;;;4.30;99.90;;;;;;5062934;28;20036;-74
2023/04/02 07:41:27;;;;;;;7.20;3.08;;;4.10;99.90;;;;;;5066132;28;20102;-74
2023/04/02 07:43:52;;;;;;;6.70;3.15;;;4.10;99.90;;;;;;5064780;28;20560;-74
2023/04/02 07:46:19;;;;;;;8.25;3.40;;;4.00;99.90;;;;;;5067711;28;20763;-74
2023/04/02 07:48:46;;;;;;;6.95;3.75;;;3.90;99.90;;;;;;5063221;28;20051;-74
2023/04/02 07:51:23;;;;;;;4.53;2.63;;;4.10;99.90;;;;;;5063265;28;20044;-74
2023/04/02 07:53:54;;;;;;;10.98;3.92;;;4.30;99.90;;;;;;5053608;28;20383;-74
2023/04/02 07:56:22;;;;;;;10.25;3.08;;;4.50;99.90;;;;;;5066906;28;20102;-74
2023/04/02 07:58:48;;;;;;;7.50;3.53;;;4.60;99.90;;;;;;5067358;28;20044;-74
2023/04/02 08:01:18;;;;;;;9.80;3.45;;;4.80;99.90;;;;;;5061538;28;20486;-74
2023/04/02 08:03:44;;;;;;;5.28;2.63;;;4.50;99.90;;;;;;5059724;28;20113;-74
2023/04/02 08:06:10;;;;;;;12.88;3.97;;;4.30;99.90;;;;;;5051045;28;20061;-74
2023/04/02 08:08:38;;;;;;;11.10;3.33;;;4.20;99.90;;;;;;5058098;28;20517;-73
2023/04/02 08:11:05;;;;;;;8.23;3.30;;;4.00;99.90;;;;;;5057327;28;20040;-73
2023/04/02 08:13:31;;;;;;;9.45;3.67;;;3.90;99.90;;;;;;5065705;28;20045;-74
2023/04/02 08:15:58;;;;;;;8.38;3.13;;;4.30;99.90;;;;;;5067363;28;20409;-73
2023/04/02 08:18:24;;;;;;;8.20;3.42;;;4.60;99.90;;;;;;5056274;28;20094;-74
2023/04/02 08:20:51;;;;;;;10.70;4.07;;;5.00;99.90;;;;;;5061726;28;20041;-74
2023/04/02 08:23:18;;;;;;;6.13;2.67;;;5.10;99.90;;;;;;5064895;28;20112;-73
2023/04/02 08:25:57;;;;;;;3.38;2.53;;;5.20;99.90;;;;;;5056819;28;20782;-74
2023/04/02 08:28:23;;;;;;;3.75;2.72;;;5.20;99.90;;;;;;5065598;28;20036;-74
2023/04/02 08:30:49;;;;;;;10.55;3.60;;;5.40;99.90;;;;;;5059257;28;20067;-74
2023/04/02 08:33:16;;;;;;;6.40;2.78;;;5.50;99.90;;;;;;5060243;28;20076;-75
2023/04/02 08:35:45;;;;;;;10.40;3.80;;;5.70;99.90;;;;;;5061041;28;20092;-73
2023/04/02 08:38:16;;;;;;;11.23;3.63;;;5.60;99.90;;;;;;5062859;28;20037;-73
2023/04/02 08:40:48;;;;;;;6.03;3.15;;;5.50;99.90;;;;;;5062023;28;20067;-75
2023/04/02 08:43:37;;;;;;;4.45;2.72;;;5.20;99.90;;;;;;5066108;28;20048;-75
2023/04/02 08:46:29;;;;;;;4.85;2.97;;;5.00;99.90;;;;;;5057740;28;20517;-74
2023/04/02 08:49:02;;;;;;;12.68;2.97;;;5.10;99.90;;;;;;5066407;28;20042;-74
2023/04/02 08:51:33;;;;;;;10.93;4.18;;;5.00;99.90;;;;;;5066195;28;20742;-75
2023/04/02 08:54:20;;;;;;;6.40;2.88;;;5.30;99.90;;;;;;5059279;28;20048;-75
2023/04/02 08:56:59;;;;;;;6.18;2.70;;;5.40;99.90;;;;;;5062401;28;20056;-74
2023/04/02 08:59:34;;;;;;;9.55;2.67;;;5.50;99.90;;;;;;5059433;28;20055;-74
2023/04/02 09:02:27;;;;;;;6.20;3.15;;;5.40;99.90;;;;;;5060908;28;20132;-73
2023/04/02 09:04:56;;;;;;;10.93;3.40;;;5.40;99.90;;;;;;5056500;28;20052;-74
2023/04/02 09:07:21;;;;;;;5.25;2.80;;;5.40;99.90;;;;;;5070481;28;20041;-74
2023/04/02 09:09:49;;;;;;;5.15;2.85;;;5.60;99.90;;;;;;5065572;28;20141;-74
2023/04/02 09:12:24;;;;;;;8.23;3.03;;;5.70;99.90;;;;;;5062058;28;20033;-74
2023/04/02 09:14:59;;;;;;;17.10;3.63;;;5.80;99.90;;;;;;5066582;28;20068;-73
2023/04/02 09:17:26;;;;;;;10.48;3.25;;;5.90;99.90;;;;;;5059723;28;20072;-74
2023/04/02 09:20:20;;;;;;;5.28;2.88;;;6.00;99.90;;;;;;5061982;28;20629;-74
2023/04/02 09:22:49;;;;;;;9.65;3.45;;;6.10;99.90;;;;;;5058160;28;20494;-74
2023/04/02 09:25:33;;;;;;;7.55;2.97;;;6.10;99.90;;;;;;5058570;28;20095;-74
2023/04/02 09:28:03;;;;;;;6.25;2.75;;;6.00;99.90;;;;;;5069256;28;20048;-74
2023/04/02 09:30:50;;;;;;;4.57;2.40;;;6.10;99.90;;;;;;5058174;28;20040;-74
2023/04/02 09:33:16;;;;;;;4.03;2.72;;;6.20;99.90;;;;;;5061720;28;20048;-74
2023/04/02 09:35:48;;;;;;;8.55;2.85;;;6.20;99.90;;;;;;5064406;28;20048;-74
2023/04/02 09:38:19;;;;;;;7.10;2.70;;;6.40;99.90;;;;;;5055275;28;20215;-74
2023/04/02 09:40:47;;;;;;;4.25;2.78;;;6.70;99.90;;;;;;5068874;28;20053;-74
2023/04/02 09:43:18;;;;;;;3.55;2.38;;;6.80;99.90;;;;;;5056970;28;20048;-74
2023/04/02 09:45:56;;;;;;;5.90;3.22;;;6.90;99.90;;;;;;5062051;28;20132;-74
2023/04/02 09:48:37;;;;;;;7.27;3.10;;;7.00;99.90;;;;;;5062779;28;20686;-74
2023/04/02 09:51:15;;;;;;;4.55;2.78;;;7.10;99.90;;;;;;5073207;28;20512;-74
2023/04/02 09:53:49;;;;;;;5.05;2.50;;;7.00;99.90;;;;;;5062785;28;20036;-73
2023/04/02 09:56:24;;;;;;;7.40;2.97;;;7.10;99.90;;;;;;5068216;28;20083;-74
2023/04/02 09:59:14;;;;;;;4.57;2.53;;;7.30;99.90;;;;;;5070323;28;20040;-74
2023/04/02 10:01:47;;;;;;;5.00;2.50;;;7.40;99.90;;;;;;5061563;28;20064;-74
2023/04/02 10:04:36;;;;;;;2.58;2.38;;;7.50;99.90;;;;;;5069496;28;20471;-74
2023/04/02 10:07:03;;;;;;;11.57;2.58;;;7.60;99.90;;;;;;5064423;28;20041;-74
2023/04/02 10:09:37;;;;;;;6.22;2.95;;;7.60;99.90;;;;;;5065373;28;20688;-75
2023/04/02 10:12:12;;;;;;;7.78;3.47;;;7.70;99.90;;;;;;5063557;28;20053;-74
2023/04/02 10:14:47;;;;;;;4.05;2.33;;;7.80;99.90;;;;;;5049921;28;20056;-75
2023/04/02 10:17:23;;;;;;;8.05;3.30;;;7.80;99.90;;;;;;5065042;28;20044;-74
2023/04/02 10:19:59;;;;;;;6.40;2.42;;;7.80;99.90;;;;;;5067292;28;20052;-74
2023/04/02 10:22:27;;;;;;;3.92;2.75;;;7.90;99.90;;;;;;5063149;28;20128;-74
2023/04/02 10:24:52;;;;;;;9.98;2.85;;;8.00;99.90;;;;;;5060680;28;20457;-75
2023/04/02 10:27:33;;;;;;;3.92;2.85;;;7.90;99.90;;;;;;5068543;28;20131;-75
2023/04/02 10:30:15;;;;;;;4.72;2.08;;;8.10;99.90;;;;;;5068888;28;20040;-75
2023/04/02 10:32:50;;;;;;;8.85;4.38;;;8.00;99.90;;;;;;5066500;28;20044;-74
2023/04/02 10:35:27;;;;;;;3.30;2.40;;;8.00;99.90;;;;;;5058205;28;20099;-75
2023/04/02 10:38:41;;;;;;;9.77;3.45;;;8.10;99.90;;;;;;5060326;28;20968;-74
2023/04/02 10:41:25;;;;;;;5.45;3.05;;;8.00;99.90;;;;;;5060913;28;20498;-75
2023/04/02 10:44:06;;;;;;;3.63;2.00;;;8.00;99.90;;;;;;5069628;28;20397;-75
2023/04/02 10:46:45;;;;;;;8.07;3.20;;;8.10;99.90;;;;;;5057931;28;20106;-75
2023/04/02 10:49:14;;;;;;;3.92;2.58;;;8.10;99.90;;;;;;5064463;28;20489;-74
2023/04/02 10:51:45;;;;;;;4.65;2.72;;;8.10;99.90;;;;;;5067256;28;20050;-74
2023/04/02 10:54:28;;;;;;;6.57;2.88;;;8.10;99.90;;;;;;5068072;28;20044;-75
2023/04/02 10:57:09;;;;;;;5.03;2.55;;;8.10;99.90;;;;;;5067717;28;20045;-75
2023/04/02 10:59:42;;;;;;;8.63;3.28;;;8.20;99.90;;;;;;5064070;28;20045;-75
2023/04/02 11:02:30;;;;;;;5.05;2.92;;;7.90;99.90;;;;;;5060426;28;20419;-75
2023/04/02 11:05:00;;;;;;;5.57;2.53;;;8.10;99.90;;;;;;5069010;28;20099;-75
2023/04/02 11:07:29;;;;;;;8.52;2.88;;;8.00;99.90;;;;;;5058007;28;20151;-75
2023/04/02 11:09:57;;;;;;;4.85;2.65;;;8.30;99.90;;;;;;5056353;28;20037;-75
2023/04/02 11:12:45;;;;;;;9.27;2.80;;;8.40;99.90;;;;;;5058801;28;20045;-75
2023/04/02 11:15:16;;;;;;;4.10;3.00;;;8.30;99.90;;;;;;5063707;28;20048;-75
2023/04/02 11:17:44;;;;;;;4.05;2.20;;;8.10;99.90;;;;;;5070134;28;20092;-75
2023/04/02 11:20:42;;;;;;;6.57;2.37;;;8.30;99.90;;;;;;5066641;28;20037;-75
2023/04/02 11:23:13;;;;;;;10.63;2.90;;;8.40;99.90;;;;;;5068783;28;20036;-75
2023/04/02 11:25:41;;;;;;;5.85;2.47;;;8.60;99.90;;;;;;5066730;28;20115;-75
2023/04/02 11:28:29;;;;;;;7.25;3.30;;;8.70;99.90;;;;;;5069513;28;20036;-75
2023/04/02 11:30:56;;;;;;;6.53;2.97;;;8.70;99.90;;;;;;5062576;28;20036;-75
2023/04/02 11:33:32;;;;;;;6.60;2.63;;;8.90;99.90;;;;;;5067787;28;20063;-75
2023/04/02 11:35:58;;;;;;;10.02;2.67;;;9.20;99.90;;;;;;5068484;28;20047;-75
2023/04/02 11:38:23;;;;;;;6.05;2.75;;;9.30;99.90;;;;;;5069384;28;20052;-75
2023/04/02 11:40:53;;;;;;;4.10;2.20;;;9.40;99.90;;;;;;5065317;28;20060;-75
2023/04/02 11:43:35;;;;;;;4.50;2.65;;;9.40;99.90;;;;;;5062433;28;20472;-76
2023/04/02 11:46:32;;;;;;;3.28;2.58;;;9.50;99.90;;;;;;5062569;28;20050;-75
2023/04/02 11:49:36;;;;;;;5.23;2.67;;;9.30;99.90;;;;;;5065409;28;20059;-75
2023/04/02 11:52:04;;;;;;;4.55;2.38;;;9.20;99.90;;;;;;5063812;28;20059;-75
2023/04/02 11:54:35;;;;;;;7.95;2.40;;;9.20;99.90;;;;;;5057350;28;20124;-75
2023/04/02 11:57:19;;;;;;;6.70;2.22;;;9.30;99.90;;;;;;5061842;28;20037;-75
2023/04/02 12:00:09;;;;;;;7.15;2.72;;;9.40;99.90;;;;;;5060451;28;20406;-75
2023/04/02 12:03:15;;;;;;;7.22;3.42;;;9.80;99.90;;;;;;5067618;28;20062;-75
2023/04/02 12:05:57;;;;;;;6.35;3.03;;;9.70;99.90;;;;;;5061306;28;20056;-75
2023/04/02 12:08:34;;;;;;;8.55;2.50;;;9.60;99.90;;;;;;5069431;28;20043;-75
2023/04/02 12:11:02;;;;;;;2.67;2.42;;;9.70;99.90;;;;;;5069406;28;20094;-75
2023/04/02 12:13:48;;;;;;;7.20;2.97;;;9.70;99.90;;;;;;5063969;28;20040;-75
2023/04/02 12:16:16;;;;;;;7.10;3.15;;;9.70;99.90;;;;;;5058852;28;20053;-75
2023/04/02 12:18:53;;;;;;;3.13;2.30;;;9.60;99.90;;;;;;5059799;28;20051;-75
2023/04/02 12:21:22;;;;;;;2.83;2.58;;;9.50;93.50;;;;;;5052630;28;20067;-75
2023/04/02 12:23:52;;;;;;;3.20;2.25;;;9.30;99.00;;;;;;5063000;28;20051;-75
2023/04/02 12:26:29;;;;;;;4.15;2.67;;;9.10;97.20;;;;;;5066461;28;20055;-75
2023/04/02 12:29:14;;;;;;;4.22;2.45;;;9.00;99.00;;;;;;5061344;28;20040;-75
2023/04/02 12:31:46;;;;;;;8.52;3.30;;;9.20;99.90;;;;;;5060496;28;20067;-75
2023/04/02 12:34:18;;;;;;;5.32;2.47;;;9.30;99.90;;;;;;5066238;28;20067;-75
2023/04/02 12:36:55;;;;;;;3.42;2.95;;;9.30;99.90;;;;;;5049659;28;20047;-75
2023/04/02 12:39:21;;;;;;;2.80;2.23;;;9.50;99.90;;;;;;5054987;28;20454;-75
2023/04/02 12:41:48;;;;;;;4.65;3.17;;;9.90;99.90;;;;;;5059520;28;20048;-75
2023/04/02 12:44:20;;;;;;;2.63;2.35;;;9.90;99.90;;;;;;5057426;28;20174;-76
2023/04/02 12:46:47;;;;;;;3.58;2.70;;;9.70;95.30;;;;;;5062930;28;20048;-75
2023/04/02 12:49:36;;;;;;;2.58;2.33;;;9.50;99.90;;;;;;5066093;28;20125;-75
2023/04/02 12:52:14;;;;;;;3.10;2.45;;;9.70;99.90;;;;;;5066670;28;20434;-75
2023/04/02 12:54:49;;;;;;;7.45;2.92;;;9.80;93.10;;;;;;5057226;28;20087;-75
2023/04/02 12:57:24;;;;;;;5.78;2.63;;;9.60;96.00;;;;;;5066028;28;20250;-75
2023/04/02 12:59:54;;;;;;;5.78;2.83;;;9.60;96.40;;;;;;5063513;28;20052;-75
2023/04/02 13:02:25;;;;;;;4.13;2.75;;;9.50;99.90;;;;;;5052587;28;20051;-75
2023/04/02 13:04:59;;;;;;;5.13;2.80;;;9.70;94.20;;;;;;5059843;28;20167;-75
2023/04/02 13:07:28;;;;;;;2.60;2.40;;;9.80;97.60;;;;;;5061456;28;20123;-75
2023/04/02 13:10:03;;;;;;;7.43;2.90;;;9.80;96.50;;;;;;5063112;28;20036;-75
2023/04/02 13:12:36;;;;;;;4.35;3.05;;;9.90;99.90;;;;;;5066206;28;20051;-75
2023/04/02 13:15:26;;;;;;;9.48;3.20;;;10.10;96.90;;;;;;5066776;28;20048;-75
2023/04/02 13:18:21;;;;;;;2.80;2.58;;;10.20;99.90;;;;;;5067392;28;20045;-75
2023/04/02 13:20:56;;;;;;;3.33;2.60;;;9.90;99.90;;;;;;5052253;28;20076;-75
2023/04/02 13:23:28;;;;;;;3.47;2.60;;;9.90;99.90;;;;;;5059801;28;20113;-75
2023/04/02 13:26:18;;;;;;;4.50;2.67;;;9.90;99.90;;;;;;5067230;28;20055;-75
2023/04/02 13:29:17;;;;;;;4.55;2.65;;;9.70;99.50;;;;;;5063190;28;20083;-75
2023/04/02 13:31:43;;;;;;;3.95;2.40;;;9.40;99.90;;;;;;5057859;28;20049;-75
2023/04/02 13:34:08;;;;;;;3.28;2.13;;;9.60;99.90;;;;;;5066814;28;20406;-75